Acatlixhuayan, Mexico

7:53 AM CST on December 03, 2016 (GMT -0600)
Hermanos Serdan International | | Change Station

Elev 7359 ft 19.16 °N, 98.37 °W | Updated 12 hours ago

Scattered Clouds
Scattered Clouds
57 °F
Feels Like 57 °F
N
8
Wind Variable Wind from SW

Today
High -- | Low -- °F
--% Chance of Precip.
Yesterday
High -- | Low -- °F
Precip. -- in
Pressure 30.28 in
Visibility 9.0 miles
Clouds Scattered Clouds 22000 ft
Dew Point 46 °F
Humidity 67%
Rainfall 0.00 in
Snow Depth Not available.
6:52 AM 5:54 PM
Waxing Crescent, 15% visible
METAR MMPB 030142Z 22007KT 9SM SCT220 14/08 A3028 RMK 8/008 HZY
Pressure 30.28 in
Visibility 9.0 miles
Clouds Scattered Clouds 22000 ft
Dew Point 46 °F
Humidity 67%
Rainfall 0.00 in
Snow Depth Not available.
6:52 AM 5:54 PM
Waxing Crescent, 15% visible
METAR MMPB 030142Z 22007KT 9SM SCT220 14/08 A3028 RMK 8/008 HZY

10-Day Weather Forecast

No radar image for this location.
×

Almanac

Astronomy

Dec. 03, 2016 Rise Set
Actual Time
Civil Twilight
Nautical Twilight
Astronomical Twilight
Moon
Length of Visible Light
Length of Day
Tomorrow will be .
, % of the Moon is Illuminated

Today's Extremes

Country Highs Country Lows

Community

WunderPhotos

Upload Photos

1,955,446 photos uploaded!

WunderBlog® & News

Nearby

Air Quality

  Air Quality AQ Index Pollutant
Not available.

Snow Depth

Station Depth Elevation

Earthquake Activity

City Distance Mag. Time & Date
Minimum magnitude displayed is 2.5.

Coastal Water Temperatures

Place Temperature

Stations

Nearby Weather Stations

Station Location Temp. Windchill Dew Point Humidity Wind Precip. Elev Updated Type